Thunder radar more information blitzortung!


Radar de pluja more information rain snow radar


Visita la nostra xarxa de llocs de meteo:

Template documentation
and downloads

And another site



No particular awareness of the weather is required.    There are no Weather-warnings

Pagina Historial Weather Underground text

Diari Resum Novembre 3, 2017 Unitats:  Tant    Imperial   Mètric
« Previous Dia
SegĂźent Dia »
Diari Setmana Mensual Anual Personalitzada
  Maxima: Minima: Media:
Temperatura: 71.4 °F /  21.9 °C 53.1 °F /  11.7 °C 63.3 °F /  17.4 °C
Punt de rosada: 59.7 °F /  15.4 °C 50.5 °F /  10.3 °C 55.8 °F /  13.2 °C
Humitat: 92 % 63 % 77 %
Wind Speed: 8.1 mph /  13.0 km/h - 2.7 mph /  4.4 km/h
RĂ fegues de vent: 8.1 mph /  13.0 km/h - -
Vent:- - South
Pression baro: 30.1 in /  1017.8 hPa 29.9 in /  1012.8 hPa -
Precipitacions: 0 in /  0.0 mm    
Historical Graphs
 
 
Dades de taula per Novembre 3, 2017
Temps Temperatura Punt de rosada Pression baro Vent Wind Speed RĂ fegues de vent Humitat Rainfall Rate (Hourly)
00:01 56.8 °F /  13.8 °C 51.6 °F /  10.9 °C 30.1 in /  1017.8 hPa Calm     83 % 0 in /  0.0 mm
00:06 56.8 °F /  13.8 °C 51.6 °F /  10.9 °C 30.1 in /  1017.8 hPa ENE 1.2 mph /  1.9 km/h 1.2 mph /  1.9 km/h 83 % 0 in /  0.0 mm
02:50 53.1 °F /  11.7 °C 50.5 °F /  10.3 °C 30 in /  1016.8 hPa SW 1 mph /  1.6 km/h   91 % 0 in /  0.0 mm
03:00 53.1 °F /  11.7 °C 50.5 °F /  10.3 °C 30 in /  1016.8 hPa Calm   2 mph /  3.2 km/h 91 % 0 in /  0.0 mm
03:10 53.4 °F /  11.9 °C 50.9 °F /  10.5 °C 30.1 in /  1017.8 hPa SSW 1 mph /  1.6 km/h 1 mph /  1.6 km/h 91 % 0 in /  0.0 mm
03:20 53.8 °F /  12.1 °C 51.3 °F /  10.7 °C 30.1 in /  1017.8 hPa Calm   1 mph /  1.6 km/h 91 % 0 in /  0.0 mm
03:30 54.3 °F /  12.4 °C 52 °F /  11.1 °C 30 in /  1016.8 hPa Calm   1 mph /  1.6 km/h 92 % 0 in /  0.0 mm
03:40 54.9 °F /  12.7 °C 52.3 °F /  11.3 °C 30 in /  1016.8 hPa WSW 2 mph /  3.2 km/h 2 mph /  3.2 km/h 91 % 0 in /  0.0 mm
03:50 55.4 °F /  13.0 °C 52.9 °F /  11.6 °C 30 in /  1016.8 hPa Calm   3 mph /  4.8 km/h 91 % 0 in /  0.0 mm
04:00 56.1 °F /  13.4 °C 53.2 °F /  11.8 °C 30 in /  1016.8 hPa North 2 mph /  3.2 km/h 4 mph /  6.4 km/h 90 % 0 in /  0.0 mm
04:10 56.7 °F /  13.7 °C 53.4 °F /  11.9 °C 30 in /  1016.8 hPa North 2 mph /  3.2 km/h 3 mph /  4.8 km/h 89 % 0 in /  0.0 mm
04:20 56.7 °F /  13.7 °C 53.4 °F /  11.9 °C 30 in /  1016.8 hPa Calm   2 mph /  3.2 km/h 89 % 0 in /  0.0 mm
04:30 57.2 °F /  14.0 °C 53.8 °F /  12.1 °C 30 in /  1016.8 hPa NNE 2 mph /  3.2 km/h 2 mph /  3.2 km/h 88 % 0 in /  0.0 mm
04:40 58.3 °F /  14.6 °C 54.3 °F /  12.4 °C 30 in /  1016.8 hPa NE 1 mph /  1.6 km/h 2 mph /  3.2 km/h 87 % 0 in /  0.0 mm
04:50 59.4 °F /  15.2 °C 55.2 °F /  12.9 °C 30 in /  1016.8 hPa NE 1 mph /  1.6 km/h 2 mph /  3.2 km/h 86 % 0 in /  0.0 mm
10:56 59.7 °F /  15.4 °C 54.9 °F /  12.7 °C 30 in /  1016.8 hPa ENE 1.2 mph /  1.9 km/h 1.2 mph /  1.9 km/h 84 % 0 in /  0.0 mm
10:57 59.7 °F /  15.4 °C 54.9 °F /  12.7 °C 30 in /  1016.8 hPa ENE 1.2 mph /  1.9 km/h 1.2 mph /  1.9 km/h 84 % 0 in /  0.0 mm
11:02 60.3 °F /  15.7 °C 55.4 °F /  13.0 °C 30 in /  1016.8 hPa NNE 2.6 mph /  4.2 km/h 2.6 mph /  4.2 km/h 84 % 0 in /  0.0 mm
11:07 60.4 °F /  15.8 °C 55.6 °F /  13.1 °C 30 in /  1016.8 hPa NNE 3.5 mph /  5.6 km/h 3.5 mph /  5.6 km/h 84 % 0 in /  0.0 mm
11:12 60.8 °F /  16.0 °C 55.6 °F /  13.1 °C 30 in /  1016.8 hPa NNE 2.3 mph /  3.7 km/h 2.3 mph /  3.7 km/h 83 % 0 in /  0.0 mm
11:17 61.3 °F /  16.3 °C 56.1 °F /  13.4 °C 30 in /  1016.8 hPa ENE 3.1 mph /  5.0 km/h 3.1 mph /  5.0 km/h 83 % 0 in /  0.0 mm
11:22 61.5 °F /  16.4 °C 55.9 °F /  13.3 °C 30 in /  1016.8 hPa NE 4.6 mph /  7.4 km/h 4.6 mph /  7.4 km/h 82 % 0 in /  0.0 mm
11:27 61.9 °F /  16.6 °C 56.3 °F /  13.5 °C 30 in /  1016.8 hPa ENE 2.3 mph /  3.7 km/h 2.4 mph /  3.9 km/h 82 % 0 in /  0.0 mm
11:32 62.1 °F /  16.7 °C 56.5 °F /  13.6 °C 30 in /  1016.8 hPa North 2.3 mph /  3.7 km/h 2.3 mph /  3.7 km/h 82 % 0 in /  0.0 mm
11:37 62.6 °F /  17.0 °C 56.3 °F /  13.5 °C 30 in /  1015.8 hPa ENE 3.5 mph /  5.6 km/h 3.5 mph /  5.6 km/h 80 % 0 in /  0.0 mm
11:42 63 °F /  17.2 °C 56.7 °F /  13.7 °C 30 in /  1015.8 hPa ENE 2.3 mph /  3.7 km/h 2.3 mph /  3.7 km/h 80 % 0 in /  0.0 mm
11:47 62.8 °F /  17.1 °C 56.1 °F /  13.4 °C 30 in /  1015.8 hPa ENE 3.5 mph /  5.6 km/h 3.5 mph /  5.6 km/h 79 % 0 in /  0.0 mm
11:52 62.8 °F /  17.1 °C 56.1 °F /  13.4 °C 30 in /  1015.8 hPa NE 4.6 mph /  7.4 km/h 4.6 mph /  7.4 km/h 79 % 0 in /  0.0 mm
11:57 63.3 °F /  17.4 °C 56.3 °F /  13.5 °C 30 in /  1015.8 hPa NE 4.3 mph /  6.9 km/h 4.3 mph /  6.9 km/h 78 % 0 in /  0.0 mm
12:02 63.1 °F /  17.3 °C 56.1 °F /  13.4 °C 30 in /  1015.8 hPa NNE 4.6 mph /  7.4 km/h 4.6 mph /  7.4 km/h 78 % 0 in /  0.0 mm
12:07 63.5 °F /  17.5 °C 56.5 °F /  13.6 °C 30 in /  1015.8 hPa NNE 3.6 mph /  5.8 km/h 3.6 mph /  5.8 km/h 78 % 0 in /  0.0 mm
12:12 63.7 °F /  17.6 °C 56.3 °F /  13.5 °C 30 in /  1015.8 hPa NW 2.3 mph /  3.7 km/h   77 % 0 in /  0.0 mm
12:17 64.4 °F /  18.0 °C 57 °F /  13.9 °C 30 in /  1015.8 hPa ENE 3.6 mph /  5.8 km/h 3.6 mph /  5.8 km/h 77 % 0 in /  0.0 mm
12:22 64.4 °F /  18.0 °C 56.7 °F /  13.7 °C 30 in /  1015.8 hPa ESE 3.8 mph /  6.1 km/h 3.8 mph /  6.1 km/h 76 % 0 in /  0.0 mm
12:27 64.9 °F /  18.3 °C 57.6 °F /  14.2 °C 30 in /  1015.8 hPa ENE 3.5 mph /  5.6 km/h 3.5 mph /  5.6 km/h 77 % 0 in /  0.0 mm
12:32 65.7 °F /  18.7 °C 58.3 °F /  14.6 °C 30 in /  1015.8 hPa ENE 3.1 mph /  5.0 km/h 3.1 mph /  5.0 km/h 77 % 0 in /  0.0 mm
12:37 65.8 °F /  18.8 °C 58.1 °F /  14.5 °C 30 in /  1015.8 hPa NW 2.3 mph /  3.7 km/h 2.3 mph /  3.7 km/h 76 % 0 in /  0.0 mm
12:42 65.8 °F /  18.8 °C 57.4 °F /  14.1 °C 30 in /  1015.8 hPa ENE 4.6 mph /  7.4 km/h 4.6 mph /  7.4 km/h 74 % 0 in /  0.0 mm
12:47 66.6 °F /  19.2 °C 57.9 °F /  14.4 °C 30 in /  1015.8 hPa ESE 2.3 mph /  3.7 km/h 2.3 mph /  3.7 km/h 74 % 0 in /  0.0 mm
12:52 66.6 °F /  19.2 °C 57.6 °F /  14.2 °C 30 in /  1015.8 hPa SE 3.5 mph /  5.6 km/h 3.5 mph /  5.6 km/h 73 % 0 in /  0.0 mm
12:57 66.9 °F /  19.4 °C 57.9 °F /  14.4 °C 30 in /  1015.8 hPa ESE 2.9 mph /  4.7 km/h 2.9 mph /  4.7 km/h 73 % 0 in /  0.0 mm
13:02 66.9 °F /  19.4 °C 57.9 °F /  14.4 °C 30 in /  1015.8 hPa NE 2.3 mph /  3.7 km/h 2.3 mph /  3.7 km/h 73 % 0 in /  0.0 mm
13:07 67.6 °F /  19.8 °C 59.4 °F /  15.2 °C 30 in /  1014.8 hPa SW 2.3 mph /  3.7 km/h 2.3 mph /  3.7 km/h 75 % 0 in /  0.0 mm
13:12 68.9 °F /  20.5 °C 59.5 °F /  15.3 °C 30 in /  1014.8 hPa West 3.5 mph /  5.6 km/h 3.5 mph /  5.6 km/h 72 % 0 in /  0.0 mm
13:17 68.9 °F /  20.5 °C 59.5 °F /  15.3 °C 30 in /  1014.8 hPa SSE 4.6 mph /  7.4 km/h 4.6 mph /  7.4 km/h 72 % 0 in /  0.0 mm
13:22 69.1 °F /  20.6 °C 59.4 °F /  15.2 °C 30 in /  1014.8 hPa SSW 3.5 mph /  5.6 km/h 3.5 mph /  5.6 km/h 71 % 0 in /  0.0 mm
13:27 69.4 °F /  20.8 °C 59.5 °F /  15.3 °C 30 in /  1014.8 hPa NW 2.3 mph /  3.7 km/h 2.3 mph /  3.7 km/h 71 % 0 in /  0.0 mm
13:32 69.6 °F /  20.9 °C 59.7 °F /  15.4 °C 30 in /  1014.8 hPa WSW 3.5 mph /  5.6 km/h 3.5 mph /  5.6 km/h 71 % 0 in /  0.0 mm
13:37 69.4 °F /  20.8 °C 58.5 °F /  14.7 °C 30 in /  1014.8 hPa SW 3.5 mph /  5.6 km/h 3.5 mph /  5.6 km/h 68 % 0 in /  0.0 mm
13:42 69.1 °F /  20.6 °C 58.5 °F /  14.7 °C 30 in /  1014.8 hPa WSW 2.3 mph /  3.7 km/h 2.3 mph /  3.7 km/h 69 % 0 in /  0.0 mm
13:47 68.5 °F /  20.3 °C 57.6 °F /  14.2 °C 30 in /  1014.8 hPa ENE 2.3 mph /  3.7 km/h 2.3 mph /  3.7 km/h 68 % 0 in /  0.0 mm
13:52 68.4 °F /  20.2 °C 57.7 °F /  14.3 °C 30 in /  1014.8 hPa East 1.2 mph /  1.9 km/h 1.2 mph /  1.9 km/h 69 % 0 in /  0.0 mm
13:57 68.4 °F /  20.2 °C 57.7 °F /  14.3 °C 30 in /  1014.8 hPa NNE 2.3 mph /  3.7 km/h 2.4 mph /  3.9 km/h 69 % 0 in /  0.0 mm
14:02 69.1 °F /  20.6 °C 58.5 °F /  14.7 °C 30 in /  1014.8 hPa SW 3.5 mph /  5.6 km/h 3.5 mph /  5.6 km/h 69 % 0 in /  0.0 mm
14:07 70.2 °F /  21.2 °C 59.2 °F /  15.1 °C 30 in /  1014.8 hPa WSW 4 mph /  6.4 km/h 4 mph /  6.4 km/h 68 % 0 in /  0.0 mm
14:12 70.3 °F /  21.3 °C 58.8 °F /  14.9 °C 30 in /  1014.8 hPa SW 5.8 mph /  9.3 km/h 5.8 mph /  9.3 km/h 67 % 0 in /  0.0 mm
14:17 69.8 °F /  21.0 °C 58.3 °F /  14.6 °C 30 in /  1014.8 hPa SW 5.8 mph /  9.3 km/h 5.8 mph /  9.3 km/h 67 % 0 in /  0.0 mm
14:22 69.4 °F /  20.8 °C 57.9 °F /  14.4 °C 29.9 in /  1013.8 hPa WSW 4.6 mph /  7.4 km/h 4.6 mph /  7.4 km/h 67 % 0 in /  0.0 mm
14:23 69.3 °F /  20.7 °C 57.7 °F /  14.3 °C 29.9 in /  1013.8 hPa SW 4.6 mph /  7.4 km/h 4.6 mph /  7.4 km/h 67 % 0 in /  0.0 mm
14:28 69.3 °F /  20.7 °C 57.7 °F /  14.3 °C 29.9 in /  1013.8 hPa WSW 1.6 mph /  2.6 km/h 1.6 mph /  2.6 km/h 67 % 0 in /  0.0 mm
14:33 70.5 °F /  21.4 °C 58.6 °F /  14.8 °C 29.9 in /  1013.8 hPa WSW 5.8 mph /  9.3 km/h 5.8 mph /  9.3 km/h 66 % 0 in /  0.0 mm
14:38 69.8 °F /  21.0 °C 57.9 °F /  14.4 °C 29.9 in /  1013.8 hPa SW 5.9 mph /  9.5 km/h 5.9 mph /  9.5 km/h 66 % 0 in /  0.0 mm
14:43 70.3 °F /  21.3 °C 57.9 °F /  14.4 °C 29.9 in /  1013.8 hPa WSW 4.6 mph /  7.4 km/h 4.6 mph /  7.4 km/h 65 % 0 in /  0.0 mm
14:48 70.7 °F /  21.5 °C 57.9 °F /  14.4 °C 29.9 in /  1013.8 hPa SSW 8.1 mph /  13.0 km/h 8.1 mph /  13.0 km/h 64 % 0 in /  0.0 mm
14:53 70.5 °F /  21.4 °C 57.7 °F /  14.3 °C 29.9 in /  1013.8 hPa WSW 5.8 mph /  9.3 km/h 5.8 mph /  9.3 km/h 64 % 0 in /  0.0 mm
14:58 70.5 °F /  21.4 °C 58.6 °F /  14.8 °C 29.9 in /  1013.8 hPa WSW 5.4 mph /  8.7 km/h 5.4 mph /  8.7 km/h 66 % 0 in /  0.0 mm
15:03 70.3 °F /  21.3 °C 57.9 °F /  14.4 °C 29.9 in /  1013.8 hPa SSW 4.6 mph /  7.4 km/h 4.6 mph /  7.4 km/h 65 % 0 in /  0.0 mm
15:08 70.9 °F /  21.6 °C 58.5 °F /  14.7 °C 29.9 in /  1013.8 hPa WSW 6.9 mph /  11.1 km/h 6.9 mph /  11.1 km/h 65 % 0 in /  0.0 mm
15:13 70.9 °F /  21.6 °C 58.5 °F /  14.7 °C 29.9 in /  1013.8 hPa SSW 3.5 mph /  5.6 km/h 3.5 mph /  5.6 km/h 65 % 0 in /  0.0 mm
15:18 71.4 °F /  21.9 °C 59 °F /  15.0 °C 29.9 in /  1013.8 hPa SSW 5.6 mph /  9.0 km/h 5.6 mph /  9.0 km/h 65 % 0 in /  0.0 mm
15:23 71.1 °F /  21.7 °C 58.3 °F /  14.6 °C 29.9 in /  1013.8 hPa SSW 6.9 mph /  11.1 km/h 6.9 mph /  11.1 km/h 64 % 0 in /  0.0 mm
15:28 70.7 °F /  21.5 °C 57.9 °F /  14.4 °C 29.9 in /  1013.8 hPa SW 6.2 mph /  10.0 km/h 6.2 mph /  10.0 km/h 64 % 0 in /  0.0 mm
15:33 70.7 °F /  21.5 °C 57.9 °F /  14.4 °C 29.9 in /  1013.8 hPa SW 3.5 mph /  5.6 km/h 3.5 mph /  5.6 km/h 64 % 0 in /  0.0 mm
15:38 70.9 °F /  21.6 °C 58.1 °F /  14.5 °C 29.9 in /  1013.8 hPa WSW 6 mph /  9.7 km/h 6 mph /  9.7 km/h 64 % 0 in /  0.0 mm
15:43 71.2 °F /  21.8 °C 58.5 °F /  14.7 °C 29.9 in /  1013.8 hPa SW 5.8 mph /  9.3 km/h 5.8 mph /  9.3 km/h 64 % 0 in /  0.0 mm
15:48 71.4 °F /  21.9 °C 58.3 °F /  14.6 °C 29.9 in /  1013.8 hPa SW 5.8 mph /  9.3 km/h 5.8 mph /  9.3 km/h 63 % 0 in /  0.0 mm
15:53 71.1 °F /  21.7 °C 57.7 °F /  14.3 °C 29.9 in /  1012.8 hPa SSW 6.9 mph /  11.1 km/h 6.9 mph /  11.1 km/h 63 % 0 in /  0.0 mm
15:58 70.3 °F /  21.3 °C 57 °F /  13.9 °C 29.9 in /  1012.8 hPa West 8.1 mph /  13.0 km/h 8.1 mph /  13.0 km/h 63 % 0 in /  0.0 mm
16:03 70.2 °F /  21.2 °C 57.4 °F /  14.1 °C 29.9 in /  1012.8 hPa SW 5.8 mph /  9.3 km/h 5.8 mph /  9.3 km/h 64 % 0 in /  0.0 mm
16:08 70.5 °F /  21.4 °C 57.7 °F /  14.3 °C 29.9 in /  1013.8 hPa SW 4.6 mph /  7.4 km/h 4.6 mph /  7.4 km/h 64 % 0 in /  0.0 mm
16:13 70.7 °F /  21.5 °C 57.9 °F /  14.4 °C 29.9 in /  1013.8 hPa South 4.6 mph /  7.4 km/h 4.6 mph /  7.4 km/h 64 % 0 in /  0.0 mm
16:18 70.3 °F /  21.3 °C 57.6 °F /  14.2 °C 29.9 in /  1013.8 hPa WSW 5.8 mph /  9.3 km/h 5.8 mph /  9.3 km/h 64 % 0 in /  0.0 mm
16:23 70.3 °F /  21.3 °C 57.9 °F /  14.4 °C 29.9 in /  1013.8 hPa SSE 5.8 mph /  9.3 km/h 5.8 mph /  9.3 km/h 65 % 0 in /  0.0 mm
16:28 69.8 °F /  21.0 °C 57 °F /  13.9 °C 29.9 in /  1013.8 hPa SW 5.8 mph /  9.3 km/h 5.8 mph /  9.3 km/h 64 % 0 in /  0.0 mm
16:33 69.6 °F /  20.9 °C 57.4 °F /  14.1 °C 29.9 in /  1013.8 hPa West 4.6 mph /  7.4 km/h 4.6 mph /  7.4 km/h 65 % 0 in /  0.0 mm
16:38 69.4 °F /  20.8 °C 57.2 °F /  14.0 °C 29.9 in /  1013.8 hPa SW 3.5 mph /  5.6 km/h 3.5 mph /  5.6 km/h 65 % 0 in /  0.0 mm
16:43 69.3 °F /  20.7 °C 57.4 °F /  14.1 °C 29.9 in /  1013.8 hPa WSW 3.5 mph /  5.6 km/h 3.5 mph /  5.6 km/h 66 % 0 in /  0.0 mm
16:48 68.4 °F /  20.2 °C 56.7 °F /  13.7 °C 29.9 in /  1013.8 hPa South 6.9 mph /  11.1 km/h 6.9 mph /  11.1 km/h 66 % 0 in /  0.0 mm
16:54 67.6 °F /  19.8 °C 56.3 °F /  13.5 °C 29.9 in /  1013.8 hPa SW 3.5 mph /  5.6 km/h 4.7 mph /  7.6 km/h 67 % 0 in /  0.0 mm
16:59 67.3 °F /  19.6 °C 55.9 °F /  13.3 °C 29.9 in /  1013.8 hPa WSW 4.9 mph /  7.9 km/h 5.4 mph /  8.7 km/h 67 % 0 in /  0.0 mm
17:04 66.7 °F /  19.3 °C 55.8 °F /  13.2 °C 29.9 in /  1013.8 hPa West 5.8 mph /  9.3 km/h 5.8 mph /  9.3 km/h 68 % 0 in /  0.0 mm
17:09 66.4 °F /  19.1 °C 55.9 °F /  13.3 °C 29.9 in /  1012.8 hPa SSW 4.6 mph /  7.4 km/h 4.6 mph /  7.4 km/h 69 % 0 in /  0.0 mm
17:14 66.2 °F /  19.0 °C 55.8 °F /  13.2 °C 29.9 in /  1012.8 hPa South 3.5 mph /  5.6 km/h 3.5 mph /  5.6 km/h 69 % 0 in /  0.0 mm
17:19 65.8 °F /  18.8 °C 56.1 °F /  13.4 °C 29.9 in /  1012.8 hPa SSW 5.6 mph /  9.0 km/h 5.6 mph /  9.0 km/h 71 % 0 in /  0.0 mm
17:24 65.5 °F /  18.6 °C 55.8 °F /  13.2 °C 29.9 in /  1013.8 hPa WSW 5.8 mph /  9.3 km/h 5.8 mph /  9.3 km/h 71 % 0 in /  0.0 mm
17:29 65.3 °F /  18.5 °C 55.8 °F /  13.2 °C 29.9 in /  1013.8 hPa SW 7.6 mph /  12.2 km/h 7.6 mph /  12.2 km/h 71 % 0 in /  0.0 mm
17:34 64.9 °F /  18.3 °C 55.8 °F /  13.2 °C 29.9 in /  1013.8 hPa WSW 6.9 mph /  11.1 km/h 6.9 mph /  11.1 km/h 72 % 0 in /  0.0 mm
17:39 64.8 °F /  18.2 °C 55.6 °F /  13.1 °C 29.9 in /  1013.8 hPa SSW 4 mph /  6.4 km/h 4 mph /  6.4 km/h 72 % 0 in /  0.0 mm
17:44 64.6 °F /  18.1 °C 55.2 °F /  12.9 °C 29.9 in /  1013.8 hPa SW 5.8 mph /  9.3 km/h 5.8 mph /  9.3 km/h 72 % 0 in /  0.0 mm
17:49 64.4 °F /  18.0 °C 55.6 °F /  13.1 °C 29.9 in /  1013.8 hPa WSW 6.9 mph /  11.1 km/h 6.9 mph /  11.1 km/h 73 % 0 in /  0.0 mm
17:54 64.2 °F /  17.9 °C 55.4 °F /  13.0 °C 29.9 in /  1012.8 hPa SW 4.6 mph /  7.4 km/h 4.6 mph /  7.4 km/h 73 % 0 in /  0.0 mm
17:59 63.9 °F /  17.7 °C 55.4 °F /  13.0 °C 29.9 in /  1012.8 hPa WSW 4.6 mph /  7.4 km/h 4.6 mph /  7.4 km/h 74 % 0 in /  0.0 mm
18:04 63.7 °F /  17.6 °C 55.2 °F /  12.9 °C 29.9 in /  1012.8 hPa SSW 3.8 mph /  6.1 km/h 4 mph /  6.4 km/h 74 % 0 in /  0.0 mm
18:09 63.5 °F /  17.5 °C 55 °F /  12.8 °C 29.9 in /  1013.8 hPa South 5.8 mph /  9.3 km/h 5.8 mph /  9.3 km/h 74 % 0 in /  0.0 mm
18:14 63.3 °F /  17.4 °C 55.2 °F /  12.9 °C 29.9 in /  1013.8 hPa WSW 5.8 mph /  9.3 km/h 5.8 mph /  9.3 km/h 75 % 0 in /  0.0 mm
18:19 63.1 °F /  17.3 °C 55 °F /  12.8 °C 29.9 in /  1013.8 hPa South 6.4 mph /  10.3 km/h 6.4 mph /  10.3 km/h 75 % 0 in /  0.0 mm
18:24 63 °F /  17.2 °C 55.2 °F /  12.9 °C 29.9 in /  1013.8 hPa SW 4.6 mph /  7.4 km/h 4.6 mph /  7.4 km/h 76 % 0 in /  0.0 mm
18:29 62.8 °F /  17.1 °C 55 °F /  12.8 °C 29.9 in /  1013.8 hPa South 4.6 mph /  7.4 km/h 4.6 mph /  7.4 km/h 76 % 0 in /  0.0 mm
18:34 62.6 °F /  17.0 °C 54.9 °F /  12.7 °C 29.9 in /  1013.8 hPa SW 3.5 mph /  5.6 km/h 3.5 mph /  5.6 km/h 76 % 0 in /  0.0 mm
18:39 62.4 °F /  16.9 °C 55 °F /  12.8 °C 29.9 in /  1013.8 hPa SW 3.5 mph /  5.6 km/h 3.5 mph /  5.6 km/h 77 % 0 in /  0.0 mm
18:44 62.2 °F /  16.8 °C 55.2 °F /  12.9 °C 29.9 in /  1013.8 hPa West 3.5 mph /  5.6 km/h 3.5 mph /  5.6 km/h 78 % 0 in /  0.0 mm
18:49 62.2 °F /  16.8 °C 55.2 °F /  12.9 °C 29.9 in /  1013.8 hPa SW 2.3 mph /  3.7 km/h   78 % 0 in /  0.0 mm
18:54 62.1 °F /  16.7 °C 55 °F /  12.8 °C 29.9 in /  1013.8 hPa SW 3.5 mph /  5.6 km/h 3.5 mph /  5.6 km/h 78 % 0 in /  0.0 mm
18:59 61.9 °F /  16.6 °C 54.9 °F /  12.7 °C 29.9 in /  1013.8 hPa WSW 2.3 mph /  3.7 km/h 2.3 mph /  3.7 km/h 78 % 0 in /  0.0 mm
19:05 61.7 °F /  16.5 °C 55 °F /  12.8 °C 29.9 in /  1013.8 hPa SW 2.3 mph /  3.7 km/h 2.3 mph /  3.7 km/h 79 % 0 in /  0.0 mm
19:10 61.7 °F /  16.5 °C 55 °F /  12.8 °C 29.9 in /  1013.8 hPa SW 2.3 mph /  3.7 km/h 2.3 mph /  3.7 km/h 79 % 0 in /  0.0 mm
19:15 61.5 °F /  16.4 °C 54.9 °F /  12.7 °C 29.9 in /  1013.8 hPa WSW 2.3 mph /  3.7 km/h 2.3 mph /  3.7 km/h 79 % 0 in /  0.0 mm
19:20 61.3 °F /  16.3 °C 54.9 °F /  12.7 °C 29.9 in /  1013.8 hPa SW 2.3 mph /  3.7 km/h 2.3 mph /  3.7 km/h 79 % 0 in /  0.0 mm
19:25 61.3 °F /  16.3 °C 54.9 °F /  12.7 °C 30 in /  1014.8 hPa SW 2.3 mph /  3.7 km/h 2.3 mph /  3.7 km/h 79 % 0 in /  0.0 mm
19:30 61.2 °F /  16.2 °C 54.9 °F /  12.7 °C 30 in /  1014.8 hPa SW 3.5 mph /  5.6 km/h 3.5 mph /  5.6 km/h 80 % 0 in /  0.0 mm
19:35 61.2 °F /  16.2 °C 54.9 °F /  12.7 °C 30 in /  1014.8 hPa West 2.3 mph /  3.7 km/h 2.3 mph /  3.7 km/h 80 % 0 in /  0.0 mm
19:40 61.2 °F /  16.2 °C 54.9 °F /  12.7 °C 29.9 in /  1013.8 hPa SW 1 mph /  1.6 km/h 3 mph /  4.8 km/h 80 % 0 in /  0.0 mm
19:45 61 °F /  16.1 °C 54.9 °F /  12.7 °C 29.9 in /  1013.8 hPa West 2.3 mph /  3.7 km/h 2.3 mph /  3.7 km/h 80 % 0 in /  0.0 mm
19:50 61 °F /  16.1 °C 55 °F /  12.8 °C 29.9 in /  1013.8 hPa SW 2 mph /  3.2 km/h 2 mph /  3.2 km/h 81 % 0 in /  0.0 mm
19:55 61 °F /  16.1 °C 55 °F /  12.8 °C 29.9 in /  1013.8 hPa WSW 1.2 mph /  1.9 km/h   81 % 0 in /  0.0 mm
20:00 61 °F /  16.1 °C 55 °F /  12.8 °C 29.9 in /  1013.8 hPa Calm   2 mph /  3.2 km/h 81 % 0 in /  0.0 mm
20:05 60.8 °F /  16.0 °C 54.9 °F /  12.7 °C 29.9 in /  1013.8 hPa Calm   1 mph /  1.6 km/h 81 % 0 in /  0.0 mm
20:10 60.8 °F /  16.0 °C 55.2 °F /  12.9 °C 30 in /  1014.8 hPa Calm     82 % 0 in /  0.0 mm
20:15 60.6 °F /  15.9 °C 55 °F /  12.8 °C 30 in /  1014.8 hPa Calm     82 % 0 in /  0.0 mm
20:20 60.6 °F /  15.9 °C 55 °F /  12.8 °C 30 in /  1014.8 hPa NNW 1.6 mph /  2.6 km/h 1.6 mph /  2.6 km/h 82 % 0 in /  0.0 mm
20:25 60.6 °F /  15.9 °C 55 °F /  12.8 °C 30 in /  1014.8 hPa Calm   2 mph /  3.2 km/h 82 % 0 in /  0.0 mm
20:30 60.6 °F /  15.9 °C 55 °F /  12.8 °C 30 in /  1014.8 hPa Calm     82 % 0 in /  0.0 mm
20:35 60.4 °F /  15.8 °C 54.9 °F /  12.7 °C 30 in /  1014.8 hPa Calm     82 % 0 in /  0.0 mm
20:40 60.4 °F /  15.8 °C 54.9 °F /  12.7 °C 30 in /  1014.8 hPa NW 0.9 mph /  1.4 km/h   82 % 0 in /  0.0 mm
20:45 60.4 °F /  15.8 °C 55.2 °F /  12.9 °C 30 in /  1014.8 hPa Calm     83 % 0 in /  0.0 mm
20:50 60.3 °F /  15.7 °C 55 °F /  12.8 °C 30 in /  1014.8 hPa Calm     83 % 0 in /  0.0 mm
20:55 59.9 °F /  15.5 °C 54.7 °F /  12.6 °C 30 in /  1014.8 hPa NW 1.2 mph /  1.9 km/h   83 % 0 in /  0.0 mm
21:00 59.7 °F /  15.4 °C 54.5 °F /  12.5 °C 30 in /  1014.8 hPa Calm     83 % 0 in /  0.0 mm
21:05 59.7 °F /  15.4 °C 54.5 °F /  12.5 °C 30 in /  1014.8 hPa Calm     83 % 0 in /  0.0 mm
21:10 59.7 °F /  15.4 °C 54.5 °F /  12.5 °C 30 in /  1014.8 hPa Calm     83 % 0 in /  0.0 mm
21:15 59.5 °F /  15.3 °C 54.3 °F /  12.4 °C 30 in /  1014.8 hPa Calm     83 % 0 in /  0.0 mm
21:20 59.5 °F /  15.3 °C 54.7 °F /  12.6 °C 30 in /  1014.8 hPa Calm     84 % 0 in /  0.0 mm
21:25 59.5 °F /  15.3 °C 54.7 °F /  12.6 °C 30 in /  1014.8 hPa Calm   1 mph /  1.6 km/h 84 % 0 in /  0.0 mm
21:30 59.5 °F /  15.3 °C 54.3 °F /  12.4 °C 30 in /  1014.8 hPa WNW 1 mph /  1.6 km/h 2 mph /  3.2 km/h 83 % 0 in /  0.0 mm
21:35 59.5 °F /  15.3 °C 54.3 °F /  12.4 °C 30 in /  1014.8 hPa Calm     83 % 0 in /  0.0 mm
21:40 59.5 °F /  15.3 °C 54.7 °F /  12.6 °C 30 in /  1014.8 hPa Calm     84 % 0 in /  0.0 mm
21:45 59.5 °F /  15.3 °C 54.7 °F /  12.6 °C 30 in /  1014.8 hPa Calm     84 % 0 in /  0.0 mm
21:50 59.5 °F /  15.3 °C 54.7 °F /  12.6 °C 30 in /  1014.8 hPa Calm     84 % 0 in /  0.0 mm
21:55 59.5 °F /  15.3 °C 54.7 °F /  12.6 °C 30 in /  1014.8 hPa WNW 1.2 mph /  1.9 km/h 1.2 mph /  1.9 km/h 84 % 0 in /  0.0 mm
22:00 59.5 °F /  15.3 °C 54.7 °F /  12.6 °C 30 in /  1014.8 hPa West 2.3 mph /  3.7 km/h 2.3 mph /  3.7 km/h 84 % 0 in /  0.0 mm
22:05 59.5 °F /  15.3 °C 54.7 °F /  12.6 °C 30 in /  1014.8 hPa Calm   1 mph /  1.6 km/h 84 % 0 in /  0.0 mm
22:10 59.4 °F /  15.2 °C 54.5 °F /  12.5 °C 30 in /  1014.8 hPa Calm     84 % 0 in /  0.0 mm
22:15 59.2 °F /  15.1 °C 54.3 °F /  12.4 °C 30 in /  1014.8 hPa Calm     84 % 0 in /  0.0 mm
22:20 59.4 °F /  15.2 °C 54.5 °F /  12.5 °C 30 in /  1014.8 hPa Calm     84 % 0 in /  0.0 mm
22:25 59.4 °F /  15.2 °C 54.5 °F /  12.5 °C 30 in /  1014.8 hPa Calm     84 % 0 in /  0.0 mm
22:30 59.4 °F /  15.2 °C 54.5 °F /  12.5 °C 30 in /  1014.8 hPa Calm     84 % 0 in /  0.0 mm
22:35 59.4 °F /  15.2 °C 54.5 °F /  12.5 °C 30 in /  1014.8 hPa Calm     84 % 0 in /  0.0 mm
22:40 59.2 °F /  15.1 °C 54.3 °F /  12.4 °C 30 in /  1014.8 hPa Calm     84 % 0 in /  0.0 mm
22:45 59 °F /  15.0 °C 54.1 °F /  12.3 °C 30 in /  1014.8 hPa Calm     84 % 0 in /  0.0 mm
22:50 58.5 °F /  14.7 °C 53.6 °F /  12.0 °C 30 in /  1014.8 hPa North 1 mph /  1.6 km/h 2 mph /  3.2 km/h 84 % 0 in /  0.0 mm
22:55 58.3 °F /  14.6 °C 53.4 °F /  11.9 °C 29.9 in /  1013.8 hPa Calm   1 mph /  1.6 km/h 84 % 0 in /  0.0 mm
23:00 58.1 °F /  14.5 °C 53.6 °F /  12.0 °C 29.9 in /  1013.8 hPa Calm     85 % 0 in /  0.0 mm
23:05 57.9 °F /  14.4 °C 53.4 °F /  11.9 °C 29.9 in /  1013.8 hPa Calm     85 % 0 in /  0.0 mm
23:10 57.7 °F /  14.3 °C 53.2 °F /  11.8 °C 30 in /  1014.8 hPa Calm     85 % 0 in /  0.0 mm
23:15 57.6 °F /  14.2 °C 53.1 °F /  11.7 °C 30 in /  1014.8 hPa Calm     85 % 0 in /  0.0 mm
23:20 57.6 °F /  14.2 °C 53.1 °F /  11.7 °C 30 in /  1014.8 hPa Calm     85 % 0 in /  0.0 mm
23:25 57.7 °F /  14.3 °C 53.2 °F /  11.8 °C 30 in /  1014.8 hPa Calm     85 % 0 in /  0.0 mm
23:30 57.7 °F /  14.3 °C 53.6 °F /  12.0 °C 30 in /  1014.8 hPa Calm     86 % 0 in /  0.0 mm
23:35 57.6 °F /  14.2 °C 53.2 °F /  11.8 °C 30 in /  1014.8 hPa Calm     86 % 0 in /  0.0 mm
23:40 57.4 °F /  14.1 °C 53.2 °F /  11.8 °C 30 in /  1014.8 hPa Calm     86 % 0 in /  0.0 mm
23:45 57.4 °F /  14.1 °C 53.2 °F /  11.8 °C 30 in /  1014.8 hPa Calm     86 % 0 in /  0.0 mm
23:50 57.2 °F /  14.0 °C 53.1 °F /  11.7 °C 30 in /  1014.8 hPa NNE 1.2 mph /  1.9 km/h 1.4 mph /  2.3 km/h 86 % 0 in /  0.0 mm
23:55 57.2 °F /  14.0 °C 53.4 °F /  11.9 °C 30 in /  1014.8 hPa NNE 1.4 mph /  2.3 km/h 1.4 mph /  2.3 km/h 87 % 0 in /  0.0 mm
Meteo Sesrovires
Elogis d' Weather Underground - 3.5 mb

Guio original per  Jim McMurry - jmcmurry@mwt.net Adaptat per a la plantilla per  Wim van der Kuil - Leuven-Template.eu

Trobareu la nostra informacio del temps tambe a:

Weather Underground

AWEKAS